createdAt,value
2024-05-09T00:07:43.107Z,8.14
2024-05-09T00:17:46.364Z,8.24
2024-05-09T00:27:49.729Z,8.21
2024-05-09T00:37:52.695Z,8.05
2024-05-09T00:47:56.127Z,7.98
2024-05-09T00:57:59.242Z,7.71
2024-05-09T01:08:03.110Z,7.50
2024-05-09T01:18:11.946Z,7.51
2024-05-09T01:28:16.656Z,7.18
2024-05-09T01:38:19.999Z,6.94
2024-05-09T01:48:23.541Z,6.81
2024-05-09T01:58:26.987Z,6.67
2024-05-09T02:08:30.282Z,6.63
2024-05-09T02:18:33.801Z,6.47
2024-05-09T02:28:37.120Z,5.96
2024-05-09T02:38:40.128Z,5.78
2024-05-09T02:48:43.684Z,5.64
2024-05-09T02:58:46.723Z,5.41
2024-05-09T03:08:49.784Z,5.15
2024-05-09T03:18:54.888Z,4.89
2024-05-09T03:28:58.232Z,4.82
2024-05-09T03:39:01.268Z,4.91
2024-05-09T03:49:04.441Z,4.91
2024-05-09T03:59:07.419Z,5.08
2024-05-09T04:09:10.378Z,5.05
2024-05-09T04:19:13.479Z,5.12
2024-05-09T04:29:17.023Z,5.35
2024-05-09T04:39:20.283Z,5.63
2024-05-09T04:49:23.771Z,5.96
2024-05-09T04:59:27.079Z,6.50
2024-05-09T05:09:30.207Z,7.05
2024-05-09T05:19:33.478Z,7.61
2024-05-09T05:29:36.920Z,8.28
2024-05-09T05:39:40.039Z,8.92
2024-05-09T05:49:43.179Z,9.23
2024-05-09T05:59:46.472Z,9.65
2024-05-09T06:09:50.470Z,10.77
2024-05-09T06:19:53.989Z,12.95
2024-05-09T06:29:57.151Z,14.98
2024-05-09T06:40:00.047Z,16.90
2024-05-09T06:50:03.740Z,18.18
2024-05-09T07:00:15.385Z,19.16
2024-05-09T07:10:28.682Z,19.52
2024-05-09T07:20:37.406Z,19.94
2024-05-09T07:30:41.240Z,20.40
2024-05-09T07:40:44.428Z,20.50
2024-05-09T08:00:54.740Z,20.13
2024-05-09T08:10:57.985Z,19.90
2024-05-09T08:21:01.179Z,19.04
2024-05-09T08:31:06.928Z,18.31
2024-05-09T08:41:14.424Z,18.00
2024-05-09T08:51:17.588Z,17.75
2024-05-09T09:01:21.070Z,17.63
2024-05-09T09:11:24.515Z,17.50
2024-05-09T09:21:27.478Z,17.60
2024-05-09T09:31:31.089Z,17.55
2024-05-09T09:41:36.870Z,17.80
2024-05-09T09:51:43.678Z,17.91
2024-05-09T10:01:47.357Z,17.86
2024-05-09T10:11:54.499Z,17.96
2024-05-09T10:22:04.650Z,17.87
2024-05-09T10:32:08.716Z,17.80
2024-05-09T10:42:11.851Z,17.74
2024-05-09T10:52:19.636Z,17.95
2024-05-09T11:02:22.962Z,17.96
2024-05-09T11:12:26.801Z,17.91
2024-05-09T11:22:33.324Z,17.83
2024-05-09T11:32:37.615Z,17.99
2024-05-09T11:42:40.762Z,18.03
2024-05-09T11:52:44.178Z,17.91
2024-05-09T12:02:47.148Z,17.95
2024-05-09T12:12:50.784Z,17.96
2024-05-09T12:22:54.194Z,17.85
2024-05-09T12:32:57.578Z,17.84
2024-05-09T12:43:00.729Z,17.96
2024-05-09T12:53:05.209Z,17.99
2024-05-09T13:03:08.693Z,18.03
2024-05-09T13:13:12.622Z,18.07
2024-05-09T13:23:16.005Z,18.16
2024-05-09T13:33:19.311Z,18.25
2024-05-09T13:43:23.393Z,18.28
2024-05-09T13:53:26.907Z,18.32
2024-05-09T14:03:30.156Z,18.47
2024-05-09T14:13:33.647Z,18.49
2024-05-09T14:23:36.676Z,18.40
2024-05-09T14:33:40.155Z,18.39
2024-05-09T14:43:43.204Z,18.39
2024-05-09T14:53:46.365Z,18.45
2024-05-09T15:03:49.795Z,18.46
2024-05-09T15:13:52.995Z,18.50
2024-05-09T15:23:56.021Z,18.66
2024-05-09T15:33:59.538Z,18.79
2024-05-09T15:44:02.722Z,18.71
2024-05-09T15:54:05.861Z,18.58
2024-05-09T16:04:10.855Z,18.36
2024-05-09T16:14:16.634Z,18.15
2024-05-09T16:24:19.663Z,18.17
2024-05-09T16:34:22.882Z,18.26
2024-05-09T16:44:26.149Z,18.25
2024-05-09T16:54:29.206Z,18.09
2024-05-09T17:04:32.315Z,17.73
2024-05-09T17:14:35.665Z,17.22
2024-05-09T17:24:38.824Z,16.77
2024-05-09T17:34:42.394Z,16.21
2024-05-09T17:44:45.335Z,15.64
2024-05-09T17:54:48.622Z,14.98
2024-05-09T18:04:51.760Z,14.25
2024-05-09T18:14:54.862Z,13.47
2024-05-09T18:24:57.988Z,12.47
2024-05-09T18:35:04.729Z,11.64
2024-05-09T18:45:08.581Z,10.93
2024-05-09T18:55:14.928Z,10.30
2024-05-09T19:05:18.466Z,9.69
2024-05-09T19:15:21.506Z,9.21
2024-05-09T19:25:24.806Z,8.78
2024-05-09T19:35:28.126Z,8.46
2024-05-09T19:45:36.357Z,8.06
2024-05-09T19:55:42.990Z,7.80
2024-05-09T20:05:49.371Z,7.42
2024-05-09T20:15:53.090Z,7.24
2024-05-09T20:25:56.201Z,6.97
2024-05-09T20:36:01.809Z,6.79
2024-05-09T20:46:08.129Z,6.48
2024-05-09T20:56:11.658Z,6.27
2024-05-09T21:06:14.692Z,5.99
2024-05-09T21:16:17.912Z,5.78
2024-05-09T21:26:23.839Z,5.61
2024-05-09T21:36:27.281Z,5.52
2024-05-09T21:46:30.342Z,5.50
2024-05-09T21:56:33.504Z,5.28
2024-05-09T22:06:36.891Z,5.15
2024-05-09T22:16:41.068Z,4.96
2024-05-09T22:26:44.935Z,4.83
2024-05-09T22:36:48.634Z,4.64
2024-05-09T22:46:52.106Z,4.61
2024-05-09T22:56:55.239Z,4.50
2024-05-09T23:06:58.531Z,4.39
2024-05-09T23:17:01.886Z,4.17
2024-05-09T23:27:05.133Z,3.98
2024-05-09T23:37:10.876Z,3.93
2024-05-09T23:47:14.231Z,3.80
2024-05-09T23:57:17.472Z,3.64
